Lucan, Minnesota
Current Conditions -  °F | °C
As of 7:53 PM on Saturday 20 Dec 2014 (Local Time) from KTKC Reporting Station
Haze Haze  
Wind Chill: 20°   Ceiling: 700
Heat Index: 31°   Visibility: 5mi
Dew Point: 30°   Wind: 15mph
Humidity: 94%   Direction: 180°S
Pressure: 30.01"   Gusts: 18mph
Location:  44.41°N, 95.41°W
Report Text: KTKC 210153Z AUTO 18013G16KT 5SM BR OVC007 00/M01 A3001 RMK AO2 T10051013
Loading
Personal Weather Stations






























Interactive Weather Map New forecast layout! Learn more

10-Day Weather Forecast

Advertisements
Track Severe Weather on mobile